createdAt,value
2022-10-22T00:00:49.306Z,69.30
2022-10-22T00:06:10.667Z,69.20
2022-10-22T00:11:15.903Z,69.20
2022-10-22T00:16:20.554Z,69.30
2022-10-22T00:21:24.325Z,69.30
2022-10-22T00:26:27.914Z,69.30
2022-10-22T00:31:32.634Z,69.20
2022-10-22T00:36:36.117Z,69.30
2022-10-22T00:41:39.870Z,69.50
2022-10-22T00:46:44.745Z,69.70
2022-10-22T00:51:48.033Z,70.80
2022-10-22T00:56:51.365Z,70.00
2022-10-22T01:01:56.715Z,69.90
2022-10-22T01:07:00.300Z,69.90
2022-10-22T01:12:10.788Z,69.90
2022-10-22T01:17:23.566Z,70.00
2022-10-22T01:22:33.236Z,69.70
2022-10-22T01:27:44.351Z,69.60
2022-10-22T01:32:52.257Z,69.40
2022-10-22T01:37:59.586Z,69.40
2022-10-22T01:43:04.599Z,69.50
2022-10-22T01:48:23.534Z,69.40
2022-10-22T01:53:37.705Z,69.50
2022-10-22T01:58:45.968Z,69.80
2022-10-22T02:03:57.196Z,70.00
2022-10-22T02:09:03.484Z,70.10
2022-10-22T02:14:08.569Z,70.20
2022-10-22T02:19:18.830Z,70.20
2022-10-22T02:24:23.538Z,70.40
2022-10-22T02:29:29.728Z,70.40
2022-10-22T02:34:34.672Z,70.40
2022-10-22T02:39:39.827Z,70.40
2022-10-22T02:44:44.359Z,70.50
2022-10-22T02:49:49.229Z,70.40
2022-10-22T02:54:53.550Z,70.30
2022-10-22T02:59:58.099Z,71.10
2022-10-22T03:05:03.210Z,70.00
2022-10-22T03:10:07.729Z,70.10
2022-10-22T03:15:11.610Z,70.20
2022-10-22T03:20:16.368Z,70.30
2022-10-22T03:25:23.596Z,70.50
2022-10-22T03:30:28.425Z,70.50
2022-10-22T03:35:34.489Z,70.50
2022-10-22T03:40:37.874Z,70.50
2022-10-22T03:45:41.378Z,70.50
2022-10-22T03:50:46.084Z,70.50
2022-10-22T03:55:49.598Z,70.60
2022-10-22T04:00:53.305Z,70.70
2022-10-22T04:06:02.685Z,70.70
2022-10-22T04:11:06.445Z,70.70
2022-10-22T04:16:11.589Z,70.80
2022-10-22T04:21:18.813Z,70.90
2022-10-22T04:26:22.377Z,71.00
2022-10-22T04:31:26.933Z,71.00
2022-10-22T04:42:01.671Z,71.10
2022-10-22T04:47:05.085Z,71.20
2022-10-22T04:52:08.583Z,71.40
2022-10-22T04:57:14.498Z,71.40
2022-10-22T05:02:17.907Z,71.50
2022-10-22T05:07:21.257Z,71.50
2022-10-22T05:12:26.105Z,71.60
2022-10-22T05:17:29.637Z,71.60
2022-10-22T05:22:34.279Z,71.80
2022-10-22T05:27:39.205Z,72.90
2022-10-22T05:32:42.877Z,71.90
2022-10-22T05:37:46.196Z,71.90
2022-10-22T05:42:50.913Z,71.90
2022-10-22T05:47:54.301Z,71.90
2022-10-22T05:52:57.587Z,72.20
2022-10-22T05:58:02.642Z,72.20
2022-10-22T06:03:06.319Z,72.20
2022-10-22T06:08:18.101Z,72.20
2022-10-22T06:13:24.054Z,72.40
2022-10-22T06:18:27.370Z,72.60
2022-10-22T06:23:30.670Z,72.80
2022-10-22T06:28:35.987Z,73.30
2022-10-22T06:33:42.376Z,73.20
2022-10-22T06:38:45.987Z,73.10
2022-10-22T06:43:51.231Z,73.20
2022-10-22T06:48:57.271Z,73.30
2022-10-22T06:54:01.106Z,73.40
2022-10-22T06:59:05.691Z,73.40
2022-10-22T07:04:09.857Z,73.50
2022-10-22T07:09:13.449Z,73.40
2022-10-22T07:14:18.321Z,73.50
2022-10-22T07:19:21.642Z,73.70
2022-10-22T07:24:25.202Z,73.60
2022-10-22T07:29:30.156Z,73.50
2022-10-22T07:34:33.454Z,73.50
2022-10-22T07:39:36.930Z,73.60
2022-10-22T07:44:41.982Z,73.60
2022-10-22T07:49:45.444Z,73.50
2022-10-22T07:54:49.066Z,73.50
2022-10-22T07:59:53.913Z,73.70
2022-10-22T08:04:57.585Z,73.60
2022-10-22T08:10:00.957Z,73.60
2022-10-22T08:15:06.982Z,73.60
2022-10-22T08:20:11.367Z,73.60
2022-10-22T08:25:15.491Z,73.70
2022-10-22T08:30:20.781Z,73.70
2022-10-22T08:35:24.413Z,73.70
2022-10-22T08:40:33.013Z,73.70
2022-10-22T08:45:44.217Z,73.80
2022-10-22T08:50:49.584Z,73.90
2022-10-22T08:55:55.342Z,74.00
2022-10-22T09:01:02.916Z,74.40
2022-10-22T09:06:12.087Z,74.50
2022-10-22T09:11:23.090Z,74.20
2022-10-22T09:16:36.399Z,74.00
2022-10-22T09:21:49.882Z,74.00
2022-10-22T09:26:53.239Z,74.10
2022-10-22T09:31:57.846Z,74.00
2022-10-22T09:37:02.940Z,73.90
2022-10-22T09:42:06.568Z,74.00
2022-10-22T09:47:42.766Z,74.00
2022-10-22T09:53:01.211Z,74.10
2022-10-22T09:58:05.852Z,74.50
2022-10-22T10:03:17.880Z,74.70
2022-10-22T10:08:21.898Z,74.80
2022-10-22T10:13:45.680Z,74.90
2022-10-22T10:19:02.778Z,74.80
2022-10-22T10:24:17.676Z,74.60
2022-10-22T10:35:01.803Z,74.50
2022-10-22T10:40:19.148Z,74.60
2022-10-22T10:45:32.140Z,74.40
2022-10-22T10:50:45.063Z,74.70
2022-10-22T10:55:58.663Z,75.20
2022-10-22T11:01:09.558Z,75.90
2022-10-22T11:06:18.575Z,76.50
2022-10-22T11:11:31.162Z,77.10
2022-10-22T11:16:38.637Z,77.50
2022-10-22T11:21:50.831Z,78.20
2022-10-22T11:26:59.028Z,78.00
2022-10-22T11:32:04.054Z,77.70
2022-10-22T11:37:11.851Z,77.40
2022-10-22T11:42:20.719Z,77.30
2022-10-22T11:47:26.955Z,77.30
2022-10-22T11:52:49.052Z,77.20
2022-10-22T11:57:52.289Z,77.20
2022-10-22T12:03:06.344Z,77.50
2022-10-22T12:08:27.989Z,77.80
2022-10-22T12:13:33.981Z,78.00
2022-10-22T12:18:45.409Z,77.40
2022-10-22T12:23:52.054Z,77.20
2022-10-22T12:28:59.710Z,77.50
2022-10-22T12:34:03.710Z,77.40
2022-10-22T12:39:15.304Z,76.60
2022-10-22T12:44:19.612Z,77.10
2022-10-22T12:49:26.221Z,76.70
2022-10-22T12:54:33.110Z,76.60
2022-10-22T12:59:39.792Z,76.80
2022-10-22T13:04:43.402Z,77.00
2022-10-22T13:09:49.694Z,77.40
2022-10-22T13:14:53.224Z,77.50
2022-10-22T13:20:05.867Z,77.60
2022-10-22T13:25:25.073Z,77.70
2022-10-22T13:30:31.153Z,78.40
2022-10-22T13:35:38.332Z,79.60
2022-10-22T13:40:43.033Z,78.80
2022-10-22T13:45:47.744Z,79.20
2022-10-22T13:50:52.801Z,79.70
2022-10-22T13:55:57.733Z,80.40
2022-10-22T14:01:02.963Z,81.20
2022-10-22T14:06:13.229Z,81.80
2022-10-22T14:11:18.610Z,81.90
2022-10-22T14:16:25.191Z,81.90
2022-10-22T14:21:31.165Z,81.60
2022-10-22T14:26:35.889Z,81.40
2022-10-22T14:36:44.691Z,81.50
2022-10-22T14:41:49.601Z,81.50
2022-10-22T14:46:56.250Z,81.50
2022-10-22T14:51:59.602Z,81.10
2022-10-22T14:57:04.866Z,81.30
2022-10-22T15:02:09.845Z,81.50
2022-10-22T15:07:18.231Z,81.60
2022-10-22T15:12:23.861Z,81.50
2022-10-22T15:17:28.162Z,81.80
2022-10-22T15:22:35.175Z,82.00
2022-10-22T15:27:41.580Z,82.50
2022-10-22T15:32:44.829Z,82.70
2022-10-22T15:37:51.639Z,82.50
2022-10-22T15:42:56.839Z,82.60
2022-10-22T15:48:01.341Z,82.70
2022-10-22T15:53:04.929Z,82.50
2022-10-22T15:58:09.586Z,82.50
2022-10-22T16:03:12.926Z,82.80
2022-10-22T16:08:16.819Z,82.80
2022-10-22T16:13:23.868Z,82.80
2022-10-22T16:18:27.151Z,82.90
2022-10-22T16:23:30.763Z,83.10
2022-10-22T16:28:36.566Z,83.10
2022-10-22T16:33:46.453Z,83.30
2022-10-22T16:38:52.663Z,83.60
2022-10-22T16:43:57.332Z,83.50
2022-10-22T16:49:00.705Z,83.60
2022-10-22T16:54:06.868Z,83.40
2022-10-22T16:59:14.502Z,82.80
2022-10-22T17:04:18.088Z,82.40
2022-10-22T17:09:23.215Z,82.10
2022-10-22T17:14:28.224Z,81.90
2022-10-22T17:19:31.899Z,81.60
2022-10-22T17:24:35.638Z,81.60
2022-10-22T17:29:40.540Z,81.90
2022-10-22T17:34:43.869Z,82.00
2022-10-22T17:39:47.894Z,81.70
2022-10-22T17:44:52.549Z,81.80
2022-10-22T17:49:55.902Z,81.70
2022-10-22T17:54:59.195Z,82.20
2022-10-22T18:00:03.940Z,82.80
2022-10-22T18:05:08.366Z,83.30
2022-10-22T18:10:12.397Z,83.30
2022-10-22T18:15:17.456Z,83.70
2022-10-22T18:20:20.984Z,84.00
2022-10-22T18:25:24.400Z,83.90
2022-10-22T18:30:29.339Z,85.00
2022-10-22T18:35:33.178Z,84.10
2022-10-22T18:40:37.010Z,84.20
2022-10-22T18:45:43.942Z,84.10
2022-10-22T18:50:48.100Z,83.90
2022-10-22T18:55:51.407Z,83.90
2022-10-22T19:00:56.079Z,84.20
2022-10-22T19:06:00.146Z,84.00
2022-10-22T19:11:09.583Z,83.80
2022-10-22T19:16:23.552Z,83.70
2022-10-22T19:21:26.931Z,83.60
2022-10-22T19:26:31.555Z,83.60
2022-10-22T19:31:36.289Z,83.20
2022-10-22T19:36:39.581Z,83.10
2022-10-22T19:41:43.005Z,82.90
2022-10-22T19:46:47.961Z,82.70
2022-10-22T19:51:51.628Z,82.30
2022-10-22T19:56:55.117Z,82.00
2022-10-22T20:02:00.525Z,81.90
2022-10-22T20:07:04.363Z,81.50
2022-10-22T20:12:08.374Z,81.20
2022-10-22T20:17:13.137Z,81.10
2022-10-22T20:22:18.716Z,80.80
2022-10-22T20:27:22.475Z,80.80
2022-10-22T20:32:27.988Z,80.60
2022-10-22T20:37:31.551Z,80.20
2022-10-22T20:42:35.723Z,80.00
2022-10-22T20:47:51.349Z,80.00
2022-10-22T20:53:01.558Z,79.80
2022-10-22T20:58:04.936Z,79.80
2022-10-22T21:03:09.557Z,79.70
2022-10-22T21:08:17.314Z,79.60
2022-10-22T21:13:20.678Z,79.50
2022-10-22T21:18:25.655Z,79.20
2022-10-22T21:23:29.004Z,79.00
2022-10-22T21:28:35.370Z,79.00
2022-10-22T21:33:41.006Z,78.90
2022-10-22T21:38:44.476Z,79.00
2022-10-22T21:43:48.335Z,78.90
2022-10-22T21:48:55.998Z,78.90
2022-10-22T21:53:59.397Z,78.90
2022-10-22T21:59:03.206Z,79.00
2022-10-22T22:04:08.264Z,78.90
2022-10-22T22:09:12.003Z,78.80
2022-10-22T22:14:15.533Z,78.80
2022-10-22T22:19:20.151Z,78.70
2022-10-22T22:24:23.433Z,78.60
2022-10-22T22:29:27.040Z,78.40
2022-10-22T22:34:31.825Z,78.40
2022-10-22T22:39:35.231Z,78.10
2022-10-22T22:44:40.044Z,78.00
2022-10-22T22:49:44.652Z,77.80
2022-10-22T22:54:48.690Z,77.60
2022-10-22T22:59:52.283Z,77.50
2022-10-22T23:04:57.012Z,77.50
2022-10-22T23:10:00.561Z,77.50
2022-10-22T23:15:04.385Z,77.30
2022-10-22T23:20:10.284Z,77.30
2022-10-22T23:25:13.604Z,77.30
2022-10-22T23:30:17.112Z,77.50
2022-10-22T23:35:22.220Z,77.40
2022-10-22T23:40:25.851Z,77.40
2022-10-22T23:45:29.663Z,77.30
2022-10-22T23:50:37.442Z,77.40
2022-10-22T23:55:41.088Z,77.40
